KNT weather

Kennett Memorial Airport
Kennett, Missouri, United States

Public forecast

Using degrees Fahrenheit for public forecast. Weather courtesy of forecast.io.

METAR (pilot weather report)

Retrieved 2019/05/21 04:35 UTC (24 minutes ago):

KTKX 210435Z AUTO 11009G15KT 8SM BKN065 23/18 A2985 RMK AO2

TAF (pilot weather forecast)

Forecast is more than 12 hours old.

Closest forecast is Jonesboro Municipal Airport, 37.9 nm (70.2 km) SW. Retrieved 2019/05/20 00:30 UTC (1 day ago):

TAF KJBR 202327Z 2100/2124 10009KT P6SM SCT050 BKN250 FM211400 18019G26KT P6SM SCT050 BKN250 FM212100 18022G30KT P6SM BKN050